Terminal Aerodrome Forecast
Issued by NWS

Home | Current Version | Previous Version | Text Only | Print | Product List | Glossary On
Versions: 1 2 3 4 5 6 7 8 9 10 11 12 13 14 15 16 17 18 19 20 21 22 23 24 25
000
FTUS46 KSEW 172101 AAA
TAFSEA
TAF AMD
KSEA 172101Z 1721/1824 22015G22KT P6SM SCT025 SCT040 BKN200
     FM180100 18005KT P6SM SCT050 BKN200
     FM181200 14010KT P6SM OVC050
     FM181600 15012KT P6SM VCSH BKN030 OVC050
     FM181800 16012G20KT P6SM -RA OVC030
     FM182100 18020G30KT P6SM -RA OVC025=

USA.gov is the U.S. government's official web portal to all federal, state and local government web resources and services.